createdAt,value
2022-08-09T00:00:57.220Z,20.10
2022-08-09T00:04:06.027Z,20.30
2022-08-09T00:06:15.900Z,20.00
2022-08-09T00:08:51.821Z,20.30
2022-08-09T00:11:24.362Z,20.00
2022-08-09T00:13:52.660Z,20.00
2022-08-09T00:16:26.500Z,20.20
2022-08-09T00:19:09.501Z,20.00
2022-08-09T00:21:55.594Z,20.10
2022-08-09T00:24:27.785Z,19.90
2022-08-09T00:26:56.077Z,19.90
2022-08-09T00:30:09.625Z,19.80
2022-08-09T00:32:25.464Z,19.60
2022-08-09T00:34:56.224Z,19.70
2022-08-09T00:37:24.005Z,19.90
2022-08-09T00:40:08.966Z,19.60
2022-08-09T00:44:16.634Z,19.60
2022-08-09T00:45:26.473Z,19.60
2022-08-09T00:47:55.476Z,19.60
2022-08-09T00:50:24.121Z,19.50
2022-08-09T00:52:52.734Z,19.50
2022-08-09T00:55:32.828Z,19.70
2022-08-09T00:58:09.307Z,19.50
2022-08-09T01:00:44.167Z,19.50
2022-08-09T01:03:40.869Z,19.70
2022-08-09T01:06:35.350Z,19.50
2022-08-09T01:09:36.617Z,19.50
2022-08-09T01:12:29.633Z,19.50
2022-08-09T01:15:17.033Z,19.50
2022-08-09T01:17:56.710Z,19.70
2022-08-09T01:20:52.535Z,19.40
2022-08-09T01:24:03.432Z,19.30
2022-08-09T01:26:54.691Z,19.30
2022-08-09T01:29:56.120Z,19.20
2022-08-09T01:32:36.010Z,19.20
2022-08-09T01:35:28.471Z,19.10
2022-08-09T01:38:08.105Z,19.20
2022-08-09T01:40:52.398Z,19.20
2022-08-09T01:43:20.938Z,19.10
2022-08-09T01:45:54.403Z,19.30
2022-08-09T01:48:29.736Z,19.30
2022-08-09T01:50:59.726Z,19.10
2022-08-09T01:53:29.320Z,19.10
2022-08-09T01:56:11.227Z,19.10
2022-08-09T01:58:40.135Z,19.00
2022-08-09T02:01:09.927Z,19.00
2022-08-09T02:03:48.335Z,19.00
2022-08-09T02:06:38.733Z,19.00
2022-08-09T02:09:14.794Z,19.00
2022-08-09T02:11:44.702Z,19.00
2022-08-09T02:14:26.361Z,19.20
2022-08-09T02:17:14.586Z,19.20
2022-08-09T02:19:43.821Z,19.00
2022-08-09T02:22:34.842Z,19.00
2022-08-09T02:25:08.050Z,18.90
2022-08-09T02:27:57.911Z,18.90
2022-08-09T02:30:28.093Z,18.80
2022-08-09T02:32:57.255Z,19.00
2022-08-09T02:36:01.173Z,19.10
2022-08-09T02:38:29.524Z,18.90
2022-08-09T02:41:03.276Z,18.90
2022-08-09T02:43:53.521Z,19.00
2022-08-09T02:46:22.572Z,18.70
2022-08-09T02:48:53.926Z,18.70
2022-08-09T02:51:23.148Z,18.70
2022-08-09T02:54:01.103Z,18.70
2022-08-09T02:56:31.611Z,18.90
2022-08-09T02:59:02.133Z,18.60
2022-08-09T03:01:58.575Z,18.60
2022-08-09T03:04:20.496Z,18.70
2022-08-09T03:06:55.336Z,18.70
2022-08-09T03:09:23.294Z,18.80
2022-08-09T03:12:05.519Z,18.60
2022-08-09T03:14:36.541Z,18.60
2022-08-09T03:17:05.616Z,18.60
2022-08-09T03:19:59.205Z,18.60
2022-08-09T03:22:30.717Z,18.50
2022-08-09T03:25:06.186Z,18.50
2022-08-09T03:27:52.637Z,18.90
2022-08-09T03:30:29.781Z,18.30
2022-08-09T03:33:17.214Z,18.30
2022-08-09T03:36:13.114Z,18.20
2022-08-09T03:38:41.928Z,18.20
2022-08-09T03:41:15.886Z,18.20
2022-08-09T03:44:03.757Z,18.50
2022-08-09T03:46:35.172Z,18.20
2022-08-09T03:49:08.862Z,18.30
2022-08-09T03:51:55.296Z,18.30
2022-08-09T03:54:30.944Z,18.00
2022-08-09T03:57:18.495Z,18.20
2022-08-09T03:59:55.386Z,18.00
2022-08-09T04:02:30.356Z,18.30
2022-08-09T04:05:01.343Z,18.20
2022-08-09T04:07:53.615Z,17.90
2022-08-09T04:10:29.699Z,18.00
2022-08-09T04:13:01.223Z,17.90
2022-08-09T04:16:17.194Z,17.80
2022-08-09T04:18:19.262Z,17.90
2022-08-09T04:20:47.570Z,18.00
2022-08-09T04:23:17.223Z,17.90
2022-08-09T04:25:51.925Z,17.90
2022-08-09T04:28:36.307Z,17.80
2022-08-09T04:31:09.829Z,17.70
2022-08-09T04:33:52.629Z,17.90
2022-08-09T04:36:26.610Z,17.70
2022-08-09T04:38:54.959Z,17.70
2022-08-09T04:41:24.451Z,17.70
2022-08-09T04:44:05.856Z,17.70
2022-08-09T04:46:57.565Z,17.80
2022-08-09T04:49:40.448Z,17.70
2022-08-09T04:52:18.489Z,17.80
2022-08-09T04:54:51.661Z,17.80
2022-08-09T04:57:21.455Z,17.90
2022-08-09T04:59:55.439Z,18.00
2022-08-09T05:02:27.173Z,17.80
2022-08-09T05:04:56.161Z,17.90
2022-08-09T05:07:29.398Z,17.90
2022-08-09T05:10:01.208Z,18.00
2022-08-09T05:12:30.033Z,17.90
2022-08-09T05:14:58.303Z,18.10
2022-08-09T05:18:38.483Z,18.00
2022-08-09T05:20:12.941Z,18.00
2022-08-09T05:24:00.232Z,17.80
2022-08-09T05:28:00.059Z,18.00
2022-08-09T05:30:29.925Z,18.00
2022-08-09T05:32:58.653Z,18.10
2022-08-09T05:35:26.654Z,18.10
2022-08-09T05:37:57.080Z,18.10
2022-08-09T05:40:31.531Z,18.10
2022-08-09T05:42:58.791Z,18.20
2022-08-09T05:45:26.476Z,18.20
2022-08-09T05:48:14.123Z,18.30
2022-08-09T05:50:57.141Z,18.40
2022-08-09T05:53:33.211Z,18.40
2022-08-09T05:56:01.505Z,18.60
2022-08-09T05:58:29.110Z,18.70
2022-08-09T06:00:56.365Z,18.80
2022-08-09T06:03:25.564Z,18.90
2022-08-09T06:06:05.882Z,19.00
2022-08-09T06:08:34.057Z,19.30
2022-08-09T06:11:01.386Z,19.00
2022-08-09T06:13:44.496Z,19.40
2022-08-09T06:16:13.259Z,19.10
2022-08-09T06:18:40.666Z,19.20
2022-08-09T06:21:08.194Z,19.40
2022-08-09T06:23:58.688Z,19.30
2022-08-09T06:26:28.635Z,19.30
2022-08-09T06:28:59.530Z,19.40
2022-08-09T06:31:31.207Z,19.40
2022-08-09T06:34:07.325Z,19.30
2022-08-09T06:36:34.774Z,19.40
2022-08-09T06:39:02.619Z,19.60
2022-08-09T06:42:07.620Z,19.50
2022-08-09T06:44:26.537Z,19.60
2022-08-09T06:46:55.313Z,19.60
2022-08-09T06:49:44.712Z,19.70
2022-08-09T06:52:11.942Z,19.70
2022-08-09T06:54:41.419Z,19.80
2022-08-09T06:57:09.295Z,19.80
2022-08-09T07:00:50.758Z,19.90
2022-08-09T07:02:29.485Z,19.90
2022-08-09T07:07:58.825Z,20.00
2022-08-09T07:10:29.417Z,20.10
2022-08-09T07:12:59.639Z,20.10
2022-08-09T07:16:38.681Z,20.10
2022-08-09T07:18:15.212Z,19.90
2022-08-09T07:20:43.708Z,20.10
2022-08-09T07:23:18.780Z,20.10
2022-08-09T07:25:52.117Z,20.10
2022-08-09T07:28:26.434Z,20.00
2022-08-09T07:30:56.265Z,20.00
2022-08-09T07:33:23.594Z,20.10
2022-08-09T07:35:53.877Z,20.00
2022-08-09T07:38:23.455Z,20.10
2022-08-09T07:41:08.266Z,20.10
2022-08-09T07:43:41.129Z,20.10
2022-08-09T07:46:19.477Z,20.10
2022-08-09T07:48:58.735Z,20.40
2022-08-09T07:52:06.260Z,20.30
2022-08-09T07:54:15.708Z,20.60
2022-08-09T07:56:55.256Z,20.50
2022-08-09T07:59:25.091Z,20.70
2022-08-09T08:01:55.789Z,20.80
2022-08-09T08:04:25.438Z,20.90
2022-08-09T08:07:15.468Z,21.30
2022-08-09T08:09:53.449Z,20.90
2022-08-09T08:12:28.067Z,21.00
2022-08-09T08:14:57.273Z,21.10
2022-08-09T08:17:54.197Z,21.60
2022-08-09T08:20:13.633Z,21.20
2022-08-09T08:22:41.787Z,21.30
2022-08-09T08:25:13.849Z,21.30
2022-08-09T08:27:43.118Z,21.40
2022-08-09T08:30:13.651Z,21.40
2022-08-09T08:32:52.779Z,21.50
2022-08-09T08:35:22.541Z,21.50
2022-08-09T08:38:02.117Z,21.70
2022-08-09T08:40:33.710Z,21.70
2022-08-09T08:43:03.387Z,21.70
2022-08-09T08:46:00.064Z,21.70
2022-08-09T08:48:38.037Z,21.70
2022-08-09T08:51:11.670Z,21.80
2022-08-09T08:53:39.869Z,21.80
2022-08-09T08:56:28.011Z,21.80
2022-08-09T08:58:55.838Z,21.90
2022-08-09T09:01:24.785Z,21.90
2022-08-09T09:03:52.796Z,21.90
2022-08-09T09:06:24.848Z,22.10
2022-08-09T09:08:53.218Z,22.00
2022-08-09T09:11:28.704Z,22.00
2022-08-09T09:14:00.453Z,22.10
2022-08-09T09:16:34.433Z,22.20
2022-08-09T09:19:37.443Z,22.30
2022-08-09T09:21:57.396Z,22.40
2022-08-09T09:24:30.897Z,22.40
2022-08-09T09:27:01.526Z,22.50
2022-08-09T09:30:09.372Z,22.70
2022-08-09T09:32:34.161Z,22.70
2022-08-09T09:35:09.958Z,22.80
2022-08-09T09:37:40.382Z,22.90
2022-08-09T09:40:10.192Z,23.00
2022-08-09T09:42:39.313Z,23.10
2022-08-09T09:45:10.596Z,23.10
2022-08-09T09:47:56.194Z,23.20
2022-08-09T09:50:50.535Z,23.30
2022-08-09T09:53:44.032Z,23.40
2022-08-09T09:56:31.124Z,23.50
2022-08-09T09:58:59.290Z,23.60
2022-08-09T10:01:36.879Z,23.70
2022-08-09T10:04:22.722Z,23.90
2022-08-09T10:06:58.878Z,24.00
2022-08-09T10:09:54.544Z,24.00
2022-08-09T10:12:33.301Z,24.10
2022-08-09T10:15:17.674Z,24.20
2022-08-09T10:18:11.703Z,24.30
2022-08-09T10:20:44.716Z,24.40
2022-08-09T10:23:20.257Z,24.50
2022-08-09T10:26:07.418Z,24.60
2022-08-09T10:28:38.956Z,24.70
2022-08-09T10:34:08.361Z,25.00
2022-08-09T10:36:39.998Z,25.10
2022-08-09T10:39:15.383Z,25.20
2022-08-09T10:41:43.711Z,25.30
2022-08-09T10:44:11.064Z,25.40
2022-08-09T10:47:00.604Z,25.50
2022-08-09T10:49:51.626Z,25.60
2022-08-09T10:52:42.867Z,25.80
2022-08-09T10:55:22.755Z,26.00
2022-08-09T10:57:52.352Z,26.00
2022-08-09T11:00:29.395Z,26.10
2022-08-09T11:03:16.004Z,26.20
2022-08-09T11:06:18.446Z,26.30
2022-08-09T11:08:53.023Z,26.40
2022-08-09T11:11:22.077Z,26.50
2022-08-09T11:14:28.906Z,26.60
2022-08-09T11:16:59.618Z,26.70
2022-08-09T11:20:11.263Z,26.80
2022-08-09T11:22:56.700Z,26.90
2022-08-09T11:25:36.230Z,27.10
2022-08-09T11:28:33.912Z,27.10
2022-08-09T11:31:06.824Z,27.10
2022-08-09T11:33:48.220Z,27.50
2022-08-09T11:36:35.403Z,27.40
2022-08-09T11:39:04.641Z,27.80
2022-08-09T11:41:37.524Z,27.60
2022-08-09T11:44:06.320Z,27.70
2022-08-09T11:46:54.920Z,27.80
2022-08-09T11:50:55.103Z,27.90
2022-08-09T11:53:58.728Z,28.00
2022-08-09T11:56:02.167Z,28.00
2022-08-09T11:58:33.099Z,28.10
2022-08-09T12:01:08.356Z,28.20
2022-08-09T12:03:54.825Z,27.90
2022-08-09T12:06:32.817Z,28.20
2022-08-09T12:09:06.597Z,28.70
2022-08-09T12:12:02.398Z,28.40
2022-08-09T12:14:40.976Z,28.50
2022-08-09T12:17:28.308Z,28.60
2022-08-09T12:20:20.031Z,28.70
2022-08-09T12:22:58.274Z,28.70
2022-08-09T12:25:36.308Z,28.80
2022-08-09T12:29:13.476Z,28.90
2022-08-09T12:31:58.277Z,29.00
2022-08-09T12:34:04.382Z,29.10
2022-08-09T12:36:34.007Z,29.20
2022-08-09T12:39:14.225Z,29.20
2022-08-09T12:41:41.713Z,29.30
2022-08-09T12:44:12.669Z,29.20
2022-08-09T12:46:48.846Z,29.20
2022-08-09T12:49:18.922Z,29.30
2022-08-09T12:52:02.591Z,29.30
2022-08-09T12:56:11.092Z,29.40
2022-08-09T12:57:46.946Z,29.50
2022-08-09T13:00:25.266Z,29.70
2022-08-09T13:02:59.252Z,29.70
2022-08-09T13:05:51.699Z,29.70
2022-08-09T13:08:40.476Z,29.70
2022-08-09T13:11:23.229Z,29.90
2022-08-09T13:14:42.485Z,30.20
2022-08-09T13:16:50.798Z,30.00
2022-08-09T13:20:09.445Z,30.10
2022-08-09T13:22:36.327Z,30.10
2022-08-09T13:25:07.537Z,30.30
2022-08-09T13:27:39.416Z,30.30
2022-08-09T13:30:50.763Z,30.30
2022-08-09T13:33:05.243Z,30.40
2022-08-09T13:35:34.809Z,30.70
2022-08-09T13:38:55.967Z,30.80
2022-08-09T13:41:54.163Z,31.10
2022-08-09T13:43:54.454Z,31.30
2022-08-09T13:47:16.422Z,31.70
2022-08-09T13:49:18.189Z,32.10
2022-08-09T13:52:01.013Z,32.60
2022-08-09T13:54:30.150Z,33.00
2022-08-09T13:56:57.894Z,33.50
2022-08-09T13:59:26.383Z,33.80
2022-08-09T14:02:09.993Z,34.10
2022-08-09T14:04:37.540Z,34.80
2022-08-09T14:07:05.068Z,34.50
2022-08-09T14:09:34.829Z,34.90
2022-08-09T14:12:06.170Z,34.90
2022-08-09T14:14:43.958Z,35.10
2022-08-09T14:17:12.980Z,35.30
2022-08-09T14:19:44.392Z,35.30
2022-08-09T14:22:12.138Z,35.50
2022-08-09T14:24:47.056Z,35.60
2022-08-09T14:27:21.472Z,35.60
2022-08-09T14:30:34.256Z,35.60
2022-08-09T14:32:37.875Z,35.80
2022-08-09T14:35:07.115Z,35.80
2022-08-09T14:37:41.243Z,35.90
2022-08-09T14:40:37.972Z,36.00
2022-08-09T14:43:09.266Z,36.00
2022-08-09T14:47:01.153Z,36.50
2022-08-09T14:48:30.583Z,36.50
2022-08-09T14:50:57.987Z,36.70
2022-08-09T14:53:25.423Z,36.60
2022-08-09T14:55:52.738Z,36.60
2022-08-09T14:58:21.951Z,36.70
2022-08-09T15:00:51.294Z,36.60
2022-08-09T15:03:20.440Z,36.70
2022-08-09T15:05:51.249Z,36.80
2022-08-09T15:08:23.605Z,36.80
2022-08-09T15:11:01.623Z,36.70
2022-08-09T15:13:48.045Z,36.90
2022-08-09T15:16:20.334Z,37.20
2022-08-09T15:18:49.186Z,37.50
2022-08-09T15:21:55.260Z,37.20
2022-08-09T15:24:17.479Z,37.20
2022-08-09T15:26:53.216Z,37.20
2022-08-09T15:30:47.610Z,36.90
2022-08-09T15:32:29.369Z,36.80
2022-08-09T15:34:59.707Z,36.50
2022-08-09T15:37:37.508Z,36.40
2022-08-09T15:40:25.341Z,36.10
2022-08-09T15:42:59.815Z,36.20
2022-08-09T15:45:30.091Z,36.40
2022-08-09T15:48:05.557Z,36.40
2022-08-09T15:50:43.856Z,36.40
2022-08-09T15:53:18.792Z,36.30
2022-08-09T15:58:46.492Z,36.00
2022-08-09T16:01:13.950Z,35.70
2022-08-09T16:03:41.523Z,35.70
2022-08-09T16:06:16.173Z,35.80
2022-08-09T16:09:00.870Z,35.60
2022-08-09T16:11:30.975Z,35.70
2022-08-09T16:14:02.897Z,35.70
2022-08-09T16:16:37.306Z,35.70
2022-08-09T16:19:10.341Z,35.50
2022-08-09T16:21:41.590Z,35.40
2022-08-09T16:24:30.244Z,35.20
2022-08-09T16:27:02.285Z,35.00
2022-08-09T16:29:37.801Z,35.10
2022-08-09T16:32:33.686Z,35.30
2022-08-09T16:35:02.451Z,35.40
2022-08-09T16:37:53.794Z,35.50
2022-08-09T16:40:29.914Z,35.70
2022-08-09T16:43:06.826Z,35.30
2022-08-09T16:45:34.207Z,35.00
2022-08-09T16:48:38.471Z,34.80
2022-08-09T16:50:59.537Z,34.80
2022-08-09T16:53:35.712Z,34.70
2022-08-09T16:56:10.063Z,34.60
2022-08-09T16:58:49.834Z,34.40
2022-08-09T17:01:19.344Z,34.00
2022-08-09T17:03:51.164Z,33.50
2022-08-09T17:06:31.690Z,33.20
2022-08-09T17:09:11.851Z,32.90
2022-08-09T17:11:48.259Z,32.60
2022-08-09T17:14:28.061Z,33.10
2022-08-09T17:17:02.586Z,32.60
2022-08-09T17:19:47.653Z,32.50
2022-08-09T17:22:24.899Z,32.50
2022-08-09T17:25:04.692Z,32.50
2022-08-09T17:27:48.686Z,32.40
2022-08-09T17:30:17.134Z,32.40
2022-08-09T17:32:47.373Z,31.90
2022-08-09T17:35:14.836Z,32.00
2022-08-09T17:38:11.282Z,32.00
2022-08-09T17:40:34.661Z,31.90
2022-08-09T17:43:32.909Z,32.20
2022-08-09T17:46:02.578Z,32.20
2022-08-09T17:48:33.067Z,32.50
2022-08-09T17:51:09.514Z,32.10
2022-08-09T17:53:47.879Z,32.00
2022-08-09T17:56:21.503Z,31.90
2022-08-09T17:58:49.226Z,31.80
2022-08-09T18:01:23.322Z,31.80
2022-08-09T18:03:52.629Z,31.80
2022-08-09T18:06:32.286Z,31.50
2022-08-09T18:09:05.570Z,31.40
2022-08-09T18:11:46.976Z,31.20
2022-08-09T18:14:22.991Z,31.10
2022-08-09T18:16:53.093Z,31.00
2022-08-09T18:20:57.442Z,30.90
2022-08-09T18:22:12.986Z,30.90
2022-08-09T18:24:40.734Z,30.80
2022-08-09T18:27:10.102Z,30.80
2022-08-09T18:30:35.164Z,30.80
2022-08-09T18:32:29.655Z,30.80
2022-08-09T18:34:56.941Z,30.70
2022-08-09T18:37:47.485Z,30.50
2022-08-09T18:40:12.532Z,30.60
2022-08-09T18:42:39.812Z,30.70
2022-08-09T18:45:11.225Z,30.70
2022-08-09T18:47:58.565Z,30.50
2022-08-09T18:50:26.001Z,30.20
2022-08-09T18:53:01.875Z,30.20
2022-08-09T18:55:56.151Z,30.00
2022-08-09T18:58:31.763Z,30.00
2022-08-09T19:01:00.599Z,29.60
2022-08-09T19:03:28.644Z,29.50
2022-08-09T19:06:04.228Z,29.20
2022-08-09T19:08:33.467Z,29.10
2022-08-09T19:11:00.791Z,28.70
2022-08-09T19:13:50.028Z,28.20
2022-08-09T19:16:18.305Z,27.90
2022-08-09T19:18:48.867Z,27.30
2022-08-09T19:21:18.894Z,27.00
2022-08-09T19:24:31.529Z,26.60
2022-08-09T19:26:37.155Z,26.30
2022-08-09T19:29:15.150Z,25.90
2022-08-09T19:31:49.484Z,25.70
2022-08-09T19:34:22.950Z,25.30
2022-08-09T19:36:56.293Z,25.00
2022-08-09T19:39:42.966Z,24.80
2022-08-09T19:42:14.501Z,24.70
2022-08-09T19:44:43.075Z,24.50
2022-08-09T19:47:11.122Z,24.40
2022-08-09T19:50:09.218Z,24.20
2022-08-09T19:52:27.395Z,24.20
2022-08-09T19:54:55.943Z,24.10
2022-08-09T19:57:26.323Z,24.00
2022-08-09T19:59:59.286Z,23.90
2022-08-09T20:04:08.401Z,23.70
2022-08-09T20:05:25.064Z,23.60
2022-08-09T20:07:59.299Z,23.50
2022-08-09T20:10:36.485Z,23.50
2022-08-09T20:13:06.752Z,23.30
2022-08-09T20:16:37.680Z,23.30
2022-08-09T20:18:27.643Z,23.20
2022-08-09T20:20:57.129Z,23.20
2022-08-09T20:23:39.347Z,23.00
2022-08-09T20:26:09.906Z,23.10
2022-08-09T20:28:48.146Z,23.00
2022-08-09T20:31:17.814Z,23.00
2022-08-09T20:33:45.829Z,22.90
2022-08-09T20:36:13.863Z,22.90
2022-08-09T20:39:28.788Z,22.90
2022-08-09T20:41:35.124Z,22.80
2022-08-09T20:44:09.794Z,22.70
2022-08-09T20:46:42.868Z,22.70
2022-08-09T20:49:13.737Z,22.60
2022-08-09T20:51:42.254Z,22.60
2022-08-09T20:54:12.905Z,22.60
2022-08-09T20:56:49.665Z,22.50
2022-08-09T20:59:24.875Z,22.50
2022-08-09T21:02:17.491Z,22.50
2022-08-09T21:05:56.169Z,22.40
2022-08-09T21:07:40.240Z,22.30
2022-08-09T21:10:08.713Z,22.30
2022-08-09T21:12:37.743Z,22.10
2022-08-09T21:15:05.990Z,22.20
2022-08-09T21:18:21.163Z,22.20
2022-08-09T21:20:31.583Z,22.10
2022-08-09T21:23:00.573Z,22.10
2022-08-09T21:25:56.035Z,22.00
2022-08-09T21:28:36.324Z,21.90
2022-08-09T21:31:16.295Z,21.80
2022-08-09T21:33:44.270Z,21.90
2022-08-09T21:36:11.670Z,21.80
2022-08-09T21:38:39.928Z,21.80
2022-08-09T21:41:08.269Z,21.80
2022-08-09T21:43:57.837Z,21.60
2022-08-09T21:46:26.467Z,21.70
2022-08-09T21:48:57.696Z,21.60
2022-08-09T21:51:36.193Z,21.60
2022-08-09T21:54:12.159Z,21.60
2022-08-09T21:56:44.704Z,21.50
2022-08-09T21:59:23.358Z,21.50
2022-08-09T22:02:00.864Z,21.50
2022-08-09T22:04:56.828Z,21.40
2022-08-09T22:07:35.371Z,21.40
2022-08-09T22:10:07.958Z,21.30
2022-08-09T22:12:37.278Z,21.30
2022-08-09T22:15:16.419Z,21.30
2022-08-09T22:17:47.303Z,21.40
2022-08-09T22:20:21.559Z,21.20
2022-08-09T22:22:49.484Z,21.20
2022-08-09T22:26:07.824Z,21.20
2022-08-09T22:28:07.208Z,21.10
2022-08-09T22:30:34.791Z,21.10
2022-08-09T22:33:09.458Z,21.00
2022-08-09T22:35:59.822Z,21.00
2022-08-09T22:38:26.329Z,21.00
2022-08-09T22:40:57.407Z,21.00
2022-08-09T22:44:01.966Z,21.10
2022-08-09T22:48:13.942Z,20.90
2022-08-09T22:49:10.357Z,20.90
2022-08-09T22:51:43.266Z,20.80
2022-08-09T22:54:21.452Z,20.80
2022-08-09T22:56:54.673Z,20.80
2022-08-09T22:59:55.237Z,20.70
2022-08-09T23:02:14.961Z,20.70
2022-08-09T23:04:53.649Z,20.50
2022-08-09T23:08:29.163Z,20.60
2022-08-09T23:10:31.046Z,20.60
2022-08-09T23:12:58.869Z,20.60
2022-08-09T23:15:27.679Z,20.60
2022-08-09T23:17:55.906Z,20.50
2022-08-09T23:20:23.852Z,20.50
2022-08-09T23:22:51.178Z,20.50
2022-08-09T23:25:18.468Z,20.40
2022-08-09T23:28:11.864Z,20.40
2022-08-09T23:30:33.061Z,20.40
2022-08-09T23:33:00.352Z,20.30
2022-08-09T23:35:27.636Z,20.30
2022-08-09T23:37:54.922Z,20.30
2022-08-09T23:40:22.210Z,20.30
2022-08-09T23:42:49.455Z,20.20
2022-08-09T23:45:37.237Z,20.30
2022-08-09T23:48:08.607Z,20.20
2022-08-09T23:50:36.738Z,20.10
2022-08-09T23:53:04.043Z,20.10
2022-08-09T23:55:33.140Z,20.50
2022-08-09T23:58:10.345Z,20.00
